sensor_id;sensor_type;location;lat;lon;timestamp;P1;durP1;ratioP1;P2;durP2;ratioP2
52067;SDS011;60237;52.338;21.228;2023-08-20T00:00:04;1636.28;;;865.10;;
52067;SDS011;60237;52.338;21.228;2023-08-20T00:02:37;1662.10;;;867.90;;
52067;SDS011;60237;52.338;21.228;2023-08-20T00:05:04;1688.82;;;868.92;;
52067;SDS011;60237;52.338;21.228;2023-08-20T00:07:31;1611.35;;;868.28;;
52067;SDS011;60237;52.338;21.228;2023-08-20T00:09:58;1681.03;;;874.30;;
52067;SDS011;60237;52.338;21.228;2023-08-20T00:12:25;1902.20;;;914.17;;
52067;SDS011;60237;52.338;21.228;2023-08-20T00:14:56;1633.32;;;867.45;;
52067;SDS011;60237;52.338;21.228;2023-08-20T00:17:25;1582.45;;;855.28;;
52067;SDS011;60237;52.338;21.228;2023-08-20T00:19:54;1811.07;;;890.80;;
52067;SDS011;60237;52.338;21.228;2023-08-20T00:22:21;1698.28;;;875.65;;
52067;SDS011;60237;52.338;21.228;2023-08-20T00:24:48;1537.38;;;856.40;;
52067;SDS011;60237;52.338;21.228;2023-08-20T00:27:15;1982.13;;;928.63;;
52067;SDS011;60237;52.338;21.228;2023-08-20T00:29:42;1609.30;;;862.28;;
52067;SDS011;60237;52.338;21.228;2023-08-20T00:32:08;1577.70;;;859.08;;
52067;SDS011;60237;52.338;21.228;2023-08-20T00:34:35;1679.93;;;878.78;;
52067;SDS011;60237;52.338;21.228;2023-08-20T00:37:02;1741.80;;;881.30;;
52067;SDS011;60237;52.338;21.228;2023-08-20T00:39:29;1592.53;;;856.97;;
52067;SDS011;60237;52.338;21.228;2023-08-20T00:41:56;1889.55;;;909.83;;
52067;SDS011;60237;52.338;21.228;2023-08-20T00:44:23;1688.32;;;877.55;;
52067;SDS011;60237;52.338;21.228;2023-08-20T00:46:50;1563.65;;;854.33;;
52067;SDS011;60237;52.338;21.228;2023-08-20T00:49:17;1714.55;;;885.17;;
52067;SDS011;60237;52.338;21.228;2023-08-20T00:51:44;1853.47;;;903.35;;
52067;SDS011;60237;52.338;21.228;2023-08-20T00:54:12;1606.65;;;856.28;;
52067;SDS011;60237;52.338;21.228;2023-08-20T00:56:38;1791.72;;;890.50;;
52067;SDS011;60237;52.338;21.228;2023-08-20T00:59:05;1683.13;;;872.20;;
52067;SDS011;60237;52.338;21.228;2023-08-20T01:01:32;1721.40;;;883.15;;
52067;SDS011;60237;52.338;21.228;2023-08-20T01:03:58;1654.78;;;868.83;;
52067;SDS011;60237;52.338;21.228;2023-08-20T01:08:59;1574.05;;;865.05;;
52067;SDS011;60237;52.338;21.228;2023-08-20T01:11:29;1520.43;;;848.90;;
52067;SDS011;60237;52.338;21.228;2023-08-20T01:13:58;1562.55;;;856.40;;
52067;SDS011;60237;52.338;21.228;2023-08-20T01:16:25;1712.65;;;879.33;;
52067;SDS011;60237;52.338;21.228;2023-08-20T01:18:53;1590.93;;;860.55;;
52067;SDS011;60237;52.338;21.228;2023-08-20T01:21:24;1836.88;;;905.55;;
52067;SDS011;60237;52.338;21.228;2023-08-20T01:28:53;1673.75;;;873.75;;
52067;SDS011;60237;52.338;21.228;2023-08-20T01:31:20;1557.68;;;852.33;;
52067;SDS011;60237;52.338;21.228;2023-08-20T01:33:47;1726.07;;;882.33;;
52067;SDS011;60237;52.338;21.228;2023-08-20T01:36:14;1547.90;;;849.10;;
52067;SDS011;60237;52.338;21.228;2023-08-20T01:38:43;1554.35;;;849.97;;
52067;SDS011;60237;52.338;21.228;2023-08-20T01:41:09;1746.55;;;888.35;;
52067;SDS011;60237;52.338;21.228;2023-08-20T01:43:36;1616.03;;;864.92;;
52067;SDS011;60237;52.338;21.228;2023-08-20T01:46:04;1948.70;;;920.63;;
52067;SDS011;60237;52.338;21.228;2023-08-20T01:48:31;1739.25;;;888.45;;
52067;SDS011;60237;52.338;21.228;2023-08-20T01:50:58;1541.22;;;861.47;;
52067;SDS011;60237;52.338;21.228;2023-08-20T01:53:25;1604.78;;;872.25;;
52067;SDS011;60237;52.338;21.228;2023-08-20T01:55:51;1642.30;;;878.70;;
52067;SDS011;60237;52.338;21.228;2023-08-20T01:58:19;1622.43;;;868.83;;
52067;SDS011;60237;52.338;21.228;2023-08-20T02:12:57;707.50;;;649.10;;
52067;SDS011;60237;52.338;21.228;2023-08-20T02:15:24;707.85;;;652.53;;
52067;SDS011;60237;52.338;21.228;2023-08-20T02:17:50;717.78;;;660.97;;
52067;SDS011;60237;52.338;21.228;2023-08-20T02:20:17;695.70;;;641.35;;
52067;SDS011;60237;52.338;21.228;2023-08-20T02:22:44;718.22;;;661.97;;
52067;SDS011;60237;52.338;21.228;2023-08-20T02:25:11;703.17;;;645.28;;
52067;SDS011;60237;52.338;21.228;2023-08-20T02:27:38;719.17;;;660.47;;
52067;SDS011;60237;52.338;21.228;2023-08-20T02:30:05;707.13;;;651.83;;
52067;SDS011;60237;52.338;21.228;2023-08-20T02:32:31;711.85;;;655.25;;
52067;SDS011;60237;52.338;21.228;2023-08-20T02:35:00;714.90;;;659.33;;
52067;SDS011;60237;52.338;21.228;2023-08-20T02:37:26;705.55;;;649.45;;
52067;SDS011;60237;52.338;21.228;2023-08-20T02:39:53;707.33;;;651.97;;
52067;SDS011;60237;52.338;21.228;2023-08-20T02:42:19;709.83;;;653.45;;
52067;SDS011;60237;52.338;21.228;2023-08-20T02:44:46;707.50;;;651.13;;
52067;SDS011;60237;52.338;21.228;2023-08-20T02:47:13;711.42;;;655.20;;
52067;SDS011;60237;52.338;21.228;2023-08-20T02:49:39;707.65;;;651.72;;
52067;SDS011;60237;52.338;21.228;2023-08-20T02:52:06;717.08;;;657.92;;
52067;SDS011;60237;52.338;21.228;2023-08-20T02:54:32;713.88;;;656.88;;
52067;SDS011;60237;52.338;21.228;2023-08-20T02:56:59;712.50;;;656.10;;
52067;SDS011;60237;52.338;21.228;2023-08-20T02:59:26;700.75;;;646.22;;
52067;SDS011;60237;52.338;21.228;2023-08-20T03:01:53;708.22;;;653.65;;
52067;SDS011;60237;52.338;21.228;2023-08-20T03:04:20;700.97;;;645.45;;
52067;SDS011;60237;52.338;21.228;2023-08-20T03:06:46;712.60;;;656.15;;
52067;SDS011;60237;52.338;21.228;2023-08-20T03:09:13;708.40;;;652.17;;
52067;SDS011;60237;52.338;21.228;2023-08-20T03:11:40;709.35;;;653.80;;
52067;SDS011;60237;52.338;21.228;2023-08-20T03:14:06;710.80;;;654.92;;
52067;SDS011;60237;52.338;21.228;2023-08-20T03:16:33;700.88;;;646.53;;
52067;SDS011;60237;52.338;21.228;2023-08-20T03:18:59;708.33;;;651.08;;
52067;SDS011;60237;52.338;21.228;2023-08-20T03:21:26;705.67;;;650.47;;
52067;SDS011;60237;52.338;21.228;2023-08-20T03:23:53;716.40;;;660.15;;
52067;SDS011;60237;52.338;21.228;2023-08-20T03:26:19;700.28;;;645.40;;
52067;SDS011;60237;52.338;21.228;2023-08-20T03:28:46;703.30;;;648.05;;
52067;SDS011;60237;52.338;21.228;2023-08-20T03:47:12;696.03;;;640.88;;
52067;SDS011;60237;52.338;21.228;2023-08-20T03:49:39;692.15;;;637.25;;
52067;SDS011;60237;52.338;21.228;2023-08-20T03:52:06;703.42;;;644.15;;
52067;SDS011;60237;52.338;21.228;2023-08-20T03:54:33;693.15;;;638.55;;
52067;SDS011;60237;52.338;21.228;2023-08-20T03:56:59;695.85;;;641.75;;
52067;SDS011;60237;52.338;21.228;2023-08-20T03:59:26;708.47;;;653.10;;
52067;SDS011;60237;52.338;21.228;2023-08-20T04:01:53;699.13;;;643.72;;
52067;SDS011;60237;52.338;21.228;2023-08-20T04:04:19;711.95;;;656.25;;
52067;SDS011;60237;52.338;21.228;2023-08-20T04:06:48;723.30;;;666.47;;
52067;SDS011;60237;52.338;21.228;2023-08-20T04:09:15;717.30;;;661.22;;
52067;SDS011;60237;52.338;21.228;2023-08-20T04:11:42;737.90;;;680.78;;
52067;SDS011;60237;52.338;21.228;2023-08-20T04:14:08;744.83;;;685.88;;
52067;SDS011;60237;52.338;21.228;2023-08-20T04:16:39;739.80;;;681.85;;
52067;SDS011;60237;52.338;21.228;2023-08-20T04:19:07;748.30;;;686.22;;
52067;SDS011;60237;52.338;21.228;2023-08-20T04:21:34;749.10;;;691.25;;
52067;SDS011;60237;52.338;21.228;2023-08-20T04:24:00;750.10;;;691.85;;
52067;SDS011;60237;52.338;21.228;2023-08-20T04:26:28;754.63;;;696.63;;
52067;SDS011;60237;52.338;21.228;2023-08-20T04:28:54;747.30;;;688.80;;
52067;SDS011;60237;52.338;21.228;2023-08-20T04:31:22;770.08;;;708.85;;
52067;SDS011;60237;52.338;21.228;2023-08-20T04:33:55;759.38;;;700.28;;
52067;SDS011;60237;52.338;21.228;2023-08-20T04:36:33;754.05;;;695.88;;
52067;SDS011;60237;52.338;21.228;2023-08-20T04:38:59;754.53;;;695.88;;
52067;SDS011;60237;52.338;21.228;2023-08-20T04:41:28;759.53;;;700.72;;
52067;SDS011;60237;52.338;21.228;2023-08-20T04:43:55;785.25;;;724.25;;
52067;SDS011;60237;52.338;21.228;2023-08-20T04:46:23;786.67;;;724.88;;
52067;SDS011;60237;52.338;21.228;2023-08-20T04:48:49;795.55;;;733.80;;
52067;SDS011;60237;52.338;21.228;2023-08-20T04:51:17;824.10;;;760.00;;
52067;SDS011;60237;52.338;21.228;2023-08-20T04:53:44;825.38;;;761.63;;
52067;SDS011;60237;52.338;21.228;2023-08-20T04:56:12;836.45;;;771.10;;
52067;SDS011;60237;52.338;21.228;2023-08-20T04:58:39;839.92;;;774.08;;
52067;SDS011;60237;52.338;21.228;2023-08-20T05:01:06;864.58;;;792.88;;
52067;SDS011;60237;52.338;21.228;2023-08-20T05:03:34;859.45;;;792.15;;
52067;SDS011;60237;52.338;21.228;2023-08-20T05:06:01;848.45;;;782.13;;
52067;SDS011;60237;52.338;21.228;2023-08-20T05:08:36;858.83;;;790.92;;
52067;SDS011;60237;52.338;21.228;2023-08-20T05:11:10;867.63;;;798.47;;
52067;SDS011;60237;52.338;21.228;2023-08-20T05:14:03;864.40;;;795.78;;
52067;SDS011;60237;52.338;21.228;2023-08-20T05:16:41;884.33;;;813.17;;
52067;SDS011;60237;52.338;21.228;2023-08-20T05:19:13;897.08;;;821.75;;
52067;SDS011;60237;52.338;21.228;2023-08-20T05:21:53;888.67;;;816.35;;
52067;SDS011;60237;52.338;21.228;2023-08-20T05:24:30;892.67;;;819.90;;
52067;SDS011;60237;52.338;21.228;2023-08-20T05:27:08;912.85;;;838.33;;
52067;SDS011;60237;52.338;21.228;2023-08-20T05:29:41;917.63;;;842.60;;
52067;SDS011;60237;52.338;21.228;2023-08-20T05:32:14;934.72;;;856.85;;
52067;SDS011;60237;52.338;21.228;2023-08-20T05:34:43;921.08;;;844.28;;
52067;SDS011;60237;52.338;21.228;2023-08-20T05:37:10;924.40;;;844.65;;
52067;SDS011;60237;52.338;21.228;2023-08-20T05:39:43;929.55;;;851.17;;
52067;SDS011;60237;52.338;21.228;2023-08-20T05:42:12;942.45;;;863.88;;
52067;SDS011;60237;52.338;21.228;2023-08-20T05:44:43;936.58;;;858.58;;
52067;SDS011;60237;52.338;21.228;2023-08-20T05:47:14;945.72;;;865.72;;
52067;SDS011;60237;52.338;21.228;2023-08-20T05:49:41;949.33;;;869.25;;
52067;SDS011;60237;52.338;21.228;2023-08-20T05:52:08;959.28;;;876.65;;
52067;SDS011;60237;52.338;21.228;2023-08-20T05:54:36;937.53;;;858.53;;
52067;SDS011;60237;52.338;21.228;2023-08-20T05:57:03;936.97;;;857.72;;
52067;SDS011;60237;52.338;21.228;2023-08-20T05:59:30;956.60;;;875.28;;
52067;SDS011;60237;52.338;21.228;2023-08-20T06:01:57;944.25;;;864.13;;
52067;SDS011;60237;52.338;21.228;2023-08-20T06:04:24;966.40;;;883.83;;
52067;SDS011;60237;52.338;21.228;2023-08-20T06:06:51;957.95;;;876.70;;
52067;SDS011;60237;52.338;21.228;2023-08-20T06:09:17;967.35;;;885.28;;
52067;SDS011;60237;52.338;21.228;2023-08-20T06:11:47;966.95;;;885.08;;
52067;SDS011;60237;52.338;21.228;2023-08-20T06:14:15;983.22;;;899.42;;
52067;SDS011;60237;52.338;21.228;2023-08-20T06:16:42;987.35;;;902.63;;
52067;SDS011;60237;52.338;21.228;2023-08-20T06:19:08;1015.08;;;923.45;;
52067;SDS011;60237;52.338;21.228;2023-08-20T06:21:35;983.35;;;894.63;;
52067;SDS011;60237;52.338;21.228;2023-08-20T06:24:02;1020.58;;;933.67;;
52067;SDS011;60237;52.338;21.228;2023-08-20T06:26:29;1008.78;;;922.42;;
52067;SDS011;60237;52.338;21.228;2023-08-20T06:28:56;1020.08;;;932.63;;
52067;SDS011;60237;52.338;21.228;2023-08-20T06:31:22;1030.63;;;941.28;;
52067;SDS011;60237;52.338;21.228;2023-08-20T06:33:49;1027.57;;;938.60;;
52067;SDS011;60237;52.338;21.228;2023-08-20T06:36:16;1042.68;;;952.65;;
52067;SDS011;60237;52.338;21.228;2023-08-20T06:38:44;1078.00;;;984.13;;
52067;SDS011;60237;52.338;21.228;2023-08-20T06:41:11;1074.78;;;981.58;;
52067;SDS011;60237;52.338;21.228;2023-08-20T06:43:37;1068.50;;;974.78;;
52067;SDS011;60237;52.338;21.228;2023-08-20T06:46:04;1055.40;;;962.58;;
52067;SDS011;60237;52.338;21.228;2023-08-20T06:48:30;1044.28;;;953.65;;
52067;SDS011;60237;52.338;21.228;2023-08-20T06:50:57;1033.68;;;943.78;;
52067;SDS011;60237;52.338;21.228;2023-08-20T06:53:24;1024.93;;;935.80;;
52067;SDS011;60237;52.338;21.228;2023-08-20T06:55:50;1038.78;;;948.05;;
52067;SDS011;60237;52.338;21.228;2023-08-20T06:58:17;1027.93;;;939.03;;
52067;SDS011;60237;52.338;21.228;2023-08-20T07:00:43;1010.63;;;923.35;;
52067;SDS011;60237;52.338;21.228;2023-08-20T07:03:10;1007.38;;;919.83;;
52067;SDS011;60237;52.338;21.228;2023-08-20T07:05:37;1038.80;;;950.15;;
52067;SDS011;60237;52.338;21.228;2023-08-20T07:08:03;1041.78;;;951.55;;
52067;SDS011;60237;52.338;21.228;2023-08-20T07:10:30;1055.50;;;964.47;;
52067;SDS011;60237;52.338;21.228;2023-08-20T07:12:57;1058.72;;;967.22;;
52067;SDS011;60237;52.338;21.228;2023-08-20T07:15:23;1038.40;;;947.20;;
52067;SDS011;60237;52.338;21.228;2023-08-20T07:17:50;1054.22;;;963.90;;
52067;SDS011;60237;52.338;21.228;2023-08-20T07:20:16;1043.72;;;952.75;;
52067;SDS011;60237;52.338;21.228;2023-08-20T07:22:43;1039.22;;;948.78;;
52067;SDS011;60237;52.338;21.228;2023-08-20T07:25:10;1073.88;;;976.65;;
52067;SDS011;60237;52.338;21.228;2023-08-20T07:27:37;1049.18;;;957.78;;
52067;SDS011;60237;52.338;21.228;2023-08-20T07:30:06;1042.88;;;952.65;;
52067;SDS011;60237;52.338;21.228;2023-08-20T07:32:33;1043.72;;;952.22;;
52067;SDS011;60237;52.338;21.228;2023-08-20T07:47:25;1096.53;;;998.88;;
52067;SDS011;60237;52.338;21.228;2023-08-20T07:49:52;1104.13;;;999.90;;
52067;SDS011;60237;52.338;21.228;2023-08-20T07:52:18;1105.40;;;999.90;;
52067;SDS011;60237;52.338;21.228;2023-08-20T07:54:45;1096.28;;;999.42;;
52067;SDS011;60237;52.338;21.228;2023-08-20T07:57:12;1097.53;;;999.53;;
52067;SDS011;60237;52.338;21.228;2023-08-20T07:59:41;1109.72;;;999.90;;
52067;SDS011;60237;52.338;21.228;2023-08-20T08:02:07;1092.10;;;997.63;;
52067;SDS011;60237;52.338;21.228;2023-08-20T08:04:35;1085.40;;;993.80;;
52067;SDS011;60237;52.338;21.228;2023-08-20T08:07:02;1088.47;;;994.35;;
52067;SDS011;60237;52.338;21.228;2023-08-20T08:09:29;1081.13;;;990.42;;
52067;SDS011;60237;52.338;21.228;2023-08-20T08:11:56;1077.70;;;987.75;;
52067;SDS011;60237;52.338;21.228;2023-08-20T08:14:23;1079.28;;;989.65;;
52067;SDS011;60237;52.338;21.228;2023-08-20T08:16:50;1072.95;;;981.67;;
52067;SDS011;60237;52.338;21.228;2023-08-20T08:19:17;1061.55;;;971.28;;
52067;SDS011;60237;52.338;21.228;2023-08-20T08:21:44;1062.45;;;973.13;;
52067;SDS011;60237;52.338;21.228;2023-08-20T08:24:10;1058.32;;;970.45;;
52067;SDS011;60237;52.338;21.228;2023-08-20T08:26:38;1074.00;;;984.30;;
52067;SDS011;60237;52.338;21.228;2023-08-20T08:29:05;1077.90;;;987.50;;
52067;SDS011;60237;52.338;21.228;2023-08-20T08:31:32;1055.90;;;968.03;;
52067;SDS011;60237;52.338;21.228;2023-08-20T08:34:01;1066.90;;;976.33;;
52067;SDS011;60237;52.338;21.228;2023-08-20T08:36:28;1055.07;;;967.90;;
52067;SDS011;60237;52.338;21.228;2023-08-20T08:38:55;1073.53;;;984.05;;
52067;SDS011;60237;52.338;21.228;2023-08-20T08:41:22;1066.75;;;979.70;;
52067;SDS011;60237;52.338;21.228;2023-08-20T08:43:53;1069.00;;;980.28;;
52067;SDS011;60237;52.338;21.228;2023-08-20T08:46:21;1068.43;;;977.80;;
52067;SDS011;60237;52.338;21.228;2023-08-20T08:48:49;1061.03;;;973.17;;
52067;SDS011;60237;52.338;21.228;2023-08-20T08:51:16;1068.68;;;979.95;;
52067;SDS011;60237;52.338;21.228;2023-08-20T08:53:45;1061.13;;;973.17;;
52067;SDS011;60237;52.338;21.228;2023-08-20T08:56:15;1061.22;;;973.80;;
52067;SDS011;60237;52.338;21.228;2023-08-20T08:58:42;1056.10;;;968.78;;
52067;SDS011;60237;52.338;21.228;2023-08-20T09:01:09;1074.70;;;980.20;;
52067;SDS011;60237;52.338;21.228;2023-08-20T09:03:36;1062.47;;;974.88;;
52067;SDS011;60237;52.338;21.228;2023-08-20T09:06:07;1073.28;;;984.40;;
52067;SDS011;60237;52.338;21.228;2023-08-20T09:08:34;1076.28;;;984.03;;
52067;SDS011;60237;52.338;21.228;2023-08-20T09:11:01;1063.38;;;975.20;;
52067;SDS011;60237;52.338;21.228;2023-08-20T09:13:37;1065.40;;;976.63;;
52067;SDS011;60237;52.338;21.228;2023-08-20T09:16:10;1051.25;;;961.65;;
52067;SDS011;60237;52.338;21.228;2023-08-20T09:18:41;1061.93;;;973.45;;
52067;SDS011;60237;52.338;21.228;2023-08-20T09:21:08;1049.80;;;962.90;;
52067;SDS011;60237;52.338;21.228;2023-08-20T09:23:35;1063.68;;;976.17;;
52067;SDS011;60237;52.338;21.228;2023-08-20T09:26:03;1071.72;;;981.95;;
52067;SDS011;60237;52.338;21.228;2023-08-20T09:28:31;1078.32;;;988.22;;
52067;SDS011;60237;52.338;21.228;2023-08-20T09:31:06;1080.63;;;986.58;;
52067;SDS011;60237;52.338;21.228;2023-08-20T09:33:36;1060.05;;;971.20;;
52067;SDS011;60237;52.338;21.228;2023-08-20T09:36:03;1068.63;;;980.65;;
52067;SDS011;60237;52.338;21.228;2023-08-20T09:38:36;1083.47;;;992.90;;
52067;SDS011;60237;52.338;21.228;2023-08-20T09:41:03;1092.40;;;998.70;;
52067;SDS011;60237;52.338;21.228;2023-08-20T09:43:31;1079.00;;;987.90;;
52067;SDS011;60237;52.338;21.228;2023-08-20T09:45:59;1078.90;;;988.42;;
52067;SDS011;60237;52.338;21.228;2023-08-20T09:48:28;1084.93;;;994.70;;
52067;SDS011;60237;52.338;21.228;2023-08-20T09:50:59;1079.05;;;989.53;;
52067;SDS011;60237;52.338;21.228;2023-08-20T09:53:27;1090.47;;;996.00;;
52067;SDS011;60237;52.338;21.228;2023-08-20T09:58:25;1078.85;;;988.63;;
52067;SDS011;60237;52.338;21.228;2023-08-20T10:00:55;1093.25;;;998.15;;
52067;SDS011;60237;52.338;21.228;2023-08-20T10:03:23;1082.53;;;992.47;;
52067;SDS011;60237;52.338;21.228;2023-08-20T10:05:52;1076.43;;;986.78;;
52067;SDS011;60237;52.338;21.228;2023-08-20T10:08:19;1078.43;;;989.50;;
52067;SDS011;60237;52.338;21.228;2023-08-20T10:13:18;1076.35;;;982.63;;
52067;SDS011;60237;52.338;21.228;2023-08-20T10:15:45;1055.72;;;968.05;;
52067;SDS011;60237;52.338;21.228;2023-08-20T10:18:13;1066.35;;;978.40;;
52067;SDS011;60237;52.338;21.228;2023-08-20T10:20:43;1062.05;;;974.25;;
52067;SDS011;60237;52.338;21.228;2023-08-20T10:23:15;1073.93;;;983.30;;
52067;SDS011;60237;52.338;21.228;2023-08-20T10:25:48;1074.60;;;985.50;;
52067;SDS011;60237;52.338;21.228;2023-08-20T10:28:20;1076.72;;;985.53;;
52067;SDS011;60237;52.338;21.228;2023-08-20T10:33:34;1083.32;;;992.97;;
52067;SDS011;60237;52.338;21.228;2023-08-20T10:36:15;1079.40;;;987.85;;
52067;SDS011;60237;52.338;21.228;2023-08-20T10:38:42;1079.57;;;989.72;;
52067;SDS011;60237;52.338;21.228;2023-08-20T10:41:10;1094.25;;;998.65;;
52067;SDS011;60237;52.338;21.228;2023-08-20T10:43:38;1090.13;;;998.75;;
52067;SDS011;60237;52.338;21.228;2023-08-20T10:48:36;1106.20;;;999.90;;
52067;SDS011;60237;52.338;21.228;2023-08-20T10:51:06;1114.00;;;999.90;;
52067;SDS011;60237;52.338;21.228;2023-08-20T10:53:33;1098.82;;;999.90;;
52067;SDS011;60237;52.338;21.228;2023-08-20T10:56:12;1103.28;;;999.90;;
52067;SDS011;60237;52.338;21.228;2023-08-20T10:58:40;1073.68;;;984.20;;
52067;SDS011;60237;52.338;21.228;2023-08-20T11:03:44;1067.88;;;979.45;;
52067;SDS011;60237;52.338;21.228;2023-08-20T11:06:11;1074.13;;;985.90;;
52067;SDS011;60237;52.338;21.228;2023-08-20T11:08:38;1070.75;;;981.83;;
52067;SDS011;60237;52.338;21.228;2023-08-20T11:11:06;1087.75;;;996.17;;
52067;SDS011;60237;52.338;21.228;2023-08-20T11:13:33;1087.25;;;996.15;;
52067;SDS011;60237;52.338;21.228;2023-08-20T11:16:04;1064.00;;;975.80;;
52067;SDS011;60237;52.338;21.228;2023-08-20T11:18:32;1084.28;;;993.45;;
52067;SDS011;60237;52.338;21.228;2023-08-20T11:21:01;1078.95;;;988.85;;
52067;SDS011;60237;52.338;21.228;2023-08-20T11:23:29;1093.22;;;998.88;;
52067;SDS011;60237;52.338;21.228;2023-08-20T11:25:56;1094.97;;;999.08;;
52067;SDS011;60237;52.338;21.228;2023-08-20T11:28:24;1103.25;;;999.90;;
52067;SDS011;60237;52.338;21.228;2023-08-20T11:30:54;1099.35;;;999.72;;
52067;SDS011;60237;52.338;21.228;2023-08-20T11:33:22;1109.35;;;999.90;;
52067;SDS011;60237;52.338;21.228;2023-08-20T11:59:10;1123.65;;;999.90;;
52067;SDS011;60237;52.338;21.228;2023-08-20T12:01:37;1104.78;;;999.90;;
52067;SDS011;60237;52.338;21.228;2023-08-20T12:04:07;1117.63;;;999.90;;
52067;SDS011;60237;52.338;21.228;2023-08-20T12:06:35;1112.50;;;999.90;;
52067;SDS011;60237;52.338;21.228;2023-08-20T12:09:02;1110.15;;;999.90;;
52067;SDS011;60237;52.338;21.228;2023-08-20T12:11:30;1110.88;;;999.90;;
52067;SDS011;60237;52.338;21.228;2023-08-20T12:13:57;1113.47;;;999.90;;
52067;SDS011;60237;52.338;21.228;2023-08-20T12:16:24;1126.35;;;999.90;;
52067;SDS011;60237;52.338;21.228;2023-08-20T12:18:54;1100.25;;;999.90;;
52067;SDS011;60237;52.338;21.228;2023-08-20T12:21:23;1113.05;;;999.90;;
52067;SDS011;60237;52.338;21.228;2023-08-20T12:23:50;1115.13;;;999.90;;
52067;SDS011;60237;52.338;21.228;2023-08-20T12:26:18;1126.88;;;999.90;;
52067;SDS011;60237;52.338;21.228;2023-08-20T12:28:45;1111.40;;;999.90;;
52067;SDS011;60237;52.338;21.228;2023-08-20T12:31:13;1136.28;;;999.90;;
52067;SDS011;60237;52.338;21.228;2023-08-20T12:33:40;1111.75;;;999.90;;
52067;SDS011;60237;52.338;21.228;2023-08-20T12:36:07;1109.78;;;999.90;;
52067;SDS011;60237;52.338;21.228;2023-08-20T12:38:34;1105.93;;;999.90;;
52067;SDS011;60237;52.338;21.228;2023-08-20T12:41:01;1090.68;;;997.60;;
52067;SDS011;60237;52.338;21.228;2023-08-20T12:43:30;1110.68;;;999.90;;
52067;SDS011;60237;52.338;21.228;2023-08-20T12:45:56;1103.28;;;999.90;;
52067;SDS011;60237;52.338;21.228;2023-08-20T12:48:23;1097.10;;;999.90;;
52067;SDS011;60237;52.338;21.228;2023-08-20T12:50:50;1098.20;;;999.90;;
52067;SDS011;60237;52.338;21.228;2023-08-20T12:53:17;1107.38;;;999.90;;
52067;SDS011;60237;52.338;21.228;2023-08-20T12:55:44;1108.30;;;999.90;;
52067;SDS011;60237;52.338;21.228;2023-08-20T12:58:10;1111.55;;;999.90;;
52067;SDS011;60237;52.338;21.228;2023-08-20T13:00:37;1098.13;;;999.90;;
52067;SDS011;60237;52.338;21.228;2023-08-20T13:03:03;1110.28;;;999.90;;
52067;SDS011;60237;52.338;21.228;2023-08-20T13:05:31;1106.80;;;999.90;;
52067;SDS011;60237;52.338;21.228;2023-08-20T13:08:18;1119.68;;;999.90;;
52067;SDS011;60237;52.338;21.228;2023-08-20T13:10:50;1097.90;;;999.90;;
52067;SDS011;60237;52.338;21.228;2023-08-20T13:13:21;1117.15;;;999.90;;
52067;SDS011;60237;52.338;21.228;2023-08-20T13:15:50;1117.40;;;999.90;;
52067;SDS011;60237;52.338;21.228;2023-08-20T13:18:18;1115.13;;;999.90;;
52067;SDS011;60237;52.338;21.228;2023-08-20T13:20:46;1101.22;;;999.90;;
52067;SDS011;60237;52.338;21.228;2023-08-20T13:23:13;1110.85;;;999.90;;
52067;SDS011;60237;52.338;21.228;2023-08-20T13:25:40;1108.00;;;999.90;;
52067;SDS011;60237;52.338;21.228;2023-08-20T13:28:07;1112.03;;;999.90;;
52067;SDS011;60237;52.338;21.228;2023-08-20T13:30:34;1107.15;;;999.90;;
52067;SDS011;60237;52.338;21.228;2023-08-20T13:33:00;1113.53;;;999.90;;
52067;SDS011;60237;52.338;21.228;2023-08-20T13:35:27;1111.60;;;999.90;;
52067;SDS011;60237;52.338;21.228;2023-08-20T13:37:54;1122.90;;;999.90;;
52067;SDS011;60237;52.338;21.228;2023-08-20T13:40:21;1130.63;;;999.90;;
52067;SDS011;60237;52.338;21.228;2023-08-20T13:42:48;1105.85;;;999.90;;
52067;SDS011;60237;52.338;21.228;2023-08-20T13:45:14;1098.47;;;999.90;;
52067;SDS011;60237;52.338;21.228;2023-08-20T13:47:42;1113.25;;;999.90;;
52067;SDS011;60237;52.338;21.228;2023-08-20T13:50:13;1099.72;;;999.90;;
52067;SDS011;60237;52.338;21.228;2023-08-20T13:52:40;1109.43;;;999.90;;
52067;SDS011;60237;52.338;21.228;2023-08-20T13:55:07;1121.88;;;999.90;;
52067;SDS011;60237;52.338;21.228;2023-08-20T13:57:34;1115.40;;;999.90;;
52067;SDS011;60237;52.338;21.228;2023-08-20T14:00:01;1110.43;;;999.90;;
52067;SDS011;60237;52.338;21.228;2023-08-20T14:02:33;1110.65;;;999.90;;
52067;SDS011;60237;52.338;21.228;2023-08-20T14:05:01;1109.90;;;999.90;;
52067;SDS011;60237;52.338;21.228;2023-08-20T14:07:27;1092.43;;;998.15;;
52067;SDS011;60237;52.338;21.228;2023-08-20T14:09:54;1096.47;;;999.83;;
52067;SDS011;60237;52.338;21.228;2023-08-20T14:12:21;1091.32;;;998.03;;
52067;SDS011;60237;52.338;21.228;2023-08-20T14:14:47;1090.20;;;997.67;;
52067;SDS011;60237;52.338;21.228;2023-08-20T14:17:14;1082.82;;;992.53;;
52067;SDS011;60237;52.338;21.228;2023-08-20T14:19:41;1084.88;;;993.40;;
52067;SDS011;60237;52.338;21.228;2023-08-20T14:22:08;1091.30;;;995.60;;
52067;SDS011;60237;52.338;21.228;2023-08-20T14:24:35;1081.47;;;991.88;;
52067;SDS011;60237;52.338;21.228;2023-08-20T14:27:01;1089.38;;;997.60;;
52067;SDS011;60237;52.338;21.228;2023-08-20T14:29:29;1093.18;;;999.25;;
52067;SDS011;60237;52.338;21.228;2023-08-20T14:31:55;1085.30;;;995.08;;
52067;SDS011;60237;52.338;21.228;2023-08-20T14:34:22;1083.78;;;992.33;;
52067;SDS011;60237;52.338;21.228;2023-08-20T14:36:49;1072.15;;;983.45;;
52067;SDS011;60237;52.338;21.228;2023-08-20T14:39:17;1085.97;;;994.05;;
52067;SDS011;60237;52.338;21.228;2023-08-20T14:41:43;1075.03;;;986.42;;
52067;SDS011;60237;52.338;21.228;2023-08-20T14:44:10;1084.38;;;993.92;;
52067;SDS011;60237;52.338;21.228;2023-08-20T14:46:37;1069.45;;;979.17;;
52067;SDS011;60237;52.338;21.228;2023-08-20T14:49:04;1070.15;;;980.53;;
52067;SDS011;60237;52.338;21.228;2023-08-20T14:51:31;1077.28;;;986.78;;
52067;SDS011;60237;52.338;21.228;2023-08-20T14:53:58;1059.85;;;973.00;;
52067;SDS011;60237;52.338;21.228;2023-08-20T14:56:24;1071.95;;;983.15;;
52067;SDS011;60237;52.338;21.228;2023-08-20T14:58:51;1073.15;;;985.60;;
52067;SDS011;60237;52.338;21.228;2023-08-20T15:01:17;1091.78;;;996.53;;
52067;SDS011;60237;52.338;21.228;2023-08-20T15:03:45;1084.07;;;993.67;;